Terminal Aerodrome Forecast
Issued by NWS

Home | Current Version | Previous Version | Text Only | Print | Product List | Glossary On
Versions: 1 2 3 4 5 6 7 8 9 10 11 12 13 14 15 16 17 18 19 20 21 22 23 24 25 26 27 28 29 30 31 32 33 34
000
FTUS44 KCRP 101720
TAFLRD
TAF
KLRD 101720Z 1018/1118 36017G24KT 5SM BR VCSH OVC030
     FM102100 36015KT P6SM OVC040
     FM110000 36011KT P6SM BKN050
     FM110900 36005KT P6SM BKN250=

USA.gov is the U.S. government's official web portal to all federal, state and local government web resources and services.